createdAt,value
2018-08-03T00:01:27.416Z,8.23
2018-08-03T00:03:55.940Z,12.03
2018-08-03T00:06:24.491Z,10.93
2018-08-03T00:08:53.053Z,13.30
2018-08-03T00:11:21.639Z,13.70
2018-08-03T00:13:50.235Z,9.73
2018-08-03T00:16:18.711Z,7.83
2018-08-03T00:18:47.197Z,7.87
2018-08-03T00:21:15.772Z,14.20
2018-08-03T00:23:44.223Z,13.23
2018-08-03T00:26:22.699Z,9.97
2018-08-03T00:28:51.457Z,13.87
2018-08-03T00:31:20.793Z,9.93
2018-08-03T00:33:49.349Z,7.43
2018-08-03T00:36:17.868Z,12.50
2018-08-03T00:38:46.517Z,8.23
2018-08-03T00:41:15.094Z,9.20
2018-08-03T00:43:44.155Z,10.70
2018-08-03T00:46:12.762Z,6.80
2018-08-03T00:48:41.405Z,9.87
2018-08-03T00:51:10.008Z,10.37
2018-08-03T00:53:38.549Z,6.97
2018-08-03T00:56:08.045Z,7.43
2018-08-03T00:58:36.517Z,14.57
2018-08-03T01:01:05.214Z,13.33
2018-08-03T01:03:33.836Z,8.40
2018-08-03T01:06:02.629Z,7.00
2018-08-03T01:08:31.158Z,5.87
2018-08-03T01:10:59.645Z,8.80
2018-08-03T01:13:28.329Z,11.37
2018-08-03T01:15:56.907Z,9.87
2018-08-03T01:18:25.497Z,9.33
2018-08-03T01:20:54.660Z,8.33
2018-08-03T01:23:23.088Z,8.50
2018-08-03T01:25:51.763Z,8.27
2018-08-03T01:28:20.334Z,8.83
2018-08-03T01:30:49.129Z,7.17
2018-08-03T01:33:17.633Z,9.67
2018-08-03T01:35:46.329Z,7.70
2018-08-03T01:38:14.914Z,10.93
2018-08-03T01:40:43.365Z,9.07
2018-08-03T01:46:42.177Z,13.27
2018-08-03T01:53:14.349Z,9.10
2018-08-03T01:55:42.826Z,10.90
2018-08-03T01:58:11.258Z,7.77
2018-08-03T02:00:39.708Z,14.17
2018-08-03T02:03:08.240Z,11.23
2018-08-03T02:05:58.987Z,10.67
2018-08-03T02:08:45.127Z,7.37
2018-08-03T02:11:13.579Z,8.73
2018-08-03T02:13:42.302Z,10.90
2018-08-03T02:16:10.876Z,16.63
2018-08-03T02:18:39.316Z,9.73
2018-08-03T02:21:08.112Z,9.53
2018-08-03T02:23:36.627Z,11.17
2018-08-03T02:26:05.221Z,13.23
2018-08-03T02:28:33.777Z,10.53
2018-08-03T02:31:02.317Z,15.50
2018-08-03T02:33:30.773Z,11.43
2018-08-03T02:35:59.318Z,9.73
2018-08-03T02:38:27.846Z,7.63
2018-08-03T02:40:56.530Z,8.53
2018-08-03T02:43:25.162Z,7.10
2018-08-03T02:45:53.608Z,12.90
2018-08-03T02:48:22.084Z,7.83
2018-08-03T02:50:50.532Z,7.27
2018-08-03T02:53:19.103Z,10.27
2018-08-03T02:55:47.596Z,13.23
2018-08-03T02:58:16.179Z,13.17
2018-08-03T03:00:44.760Z,10.57
2018-08-03T03:03:13.345Z,7.43
2018-08-03T03:05:41.805Z,10.17
2018-08-03T03:08:18.066Z,12.97
2018-08-03T03:10:46.622Z,11.57
2018-08-03T03:13:15.172Z,11.63
2018-08-03T03:15:43.731Z,14.23
2018-08-03T03:18:12.217Z,10.13
2018-08-03T03:20:40.743Z,8.47
2018-08-03T03:23:09.277Z,13.63
2018-08-03T03:25:38.057Z,19.20
2018-08-03T03:28:06.554Z,7.70
2018-08-03T03:30:35.054Z,7.77
2018-08-03T03:33:03.516Z,7.57
2018-08-03T03:35:31.971Z,10.77
2018-08-03T03:38:00.467Z,7.80
2018-08-03T03:40:28.967Z,8.40
2018-08-03T03:42:57.466Z,12.67
2018-08-03T03:45:26.490Z,14.00
2018-08-03T03:47:55.009Z,12.53
2018-08-03T03:50:23.612Z,9.43
2018-08-03T03:52:52.047Z,12.80
2018-08-03T03:55:20.665Z,10.70
2018-08-03T03:57:49.073Z,13.43
2018-08-03T04:00:17.561Z,9.00
2018-08-03T04:02:46.191Z,14.30
2018-08-03T04:05:14.686Z,18.13
2018-08-03T04:07:43.512Z,13.23
2018-08-03T04:10:12.111Z,16.17
2018-08-03T04:12:40.972Z,9.43
2018-08-03T04:15:09.473Z,14.17
2018-08-03T04:17:37.926Z,10.47
2018-08-03T04:20:06.924Z,11.60
2018-08-03T04:22:35.709Z,14.10
2018-08-03T04:25:04.377Z,14.03
2018-08-03T04:27:33.285Z,11.40
2018-08-03T04:30:29.225Z,11.53
2018-08-03T04:32:57.800Z,9.90
2018-08-03T04:35:26.281Z,10.07
2018-08-03T04:37:54.783Z,8.57
2018-08-03T04:40:23.365Z,10.97
2018-08-03T04:42:52.022Z,12.20
2018-08-03T04:45:20.591Z,14.07
2018-08-03T04:47:49.233Z,14.53
2018-08-03T04:50:17.986Z,8.93
2018-08-03T04:52:46.595Z,12.17
2018-08-03T04:55:22.893Z,13.93
2018-08-03T04:57:51.428Z,13.57
2018-08-03T05:00:20.009Z,13.97
2018-08-03T05:02:48.460Z,14.83
2018-08-03T05:05:16.964Z,68.13
2018-08-03T05:07:45.457Z,36.43
2018-08-03T05:10:14.036Z,20.97
2018-08-03T05:12:42.565Z,17.50
2018-08-03T05:15:11.089Z,16.83
2018-08-03T05:17:39.679Z,15.63
2018-08-03T05:20:08.671Z,15.97
2018-08-03T05:22:37.268Z,17.40
2018-08-03T05:25:06.256Z,27.27
2018-08-03T05:27:34.837Z,18.37
2018-08-03T05:30:03.351Z,18.47
2018-08-03T05:32:31.898Z,15.10
2018-08-03T05:35:00.396Z,16.03
2018-08-03T05:37:28.969Z,23.80
2018-08-03T05:39:57.493Z,14.67
2018-08-03T05:42:26.101Z,14.70
2018-08-03T05:44:54.520Z,15.80
2018-08-03T05:47:22.968Z,20.17
2018-08-03T05:49:51.481Z,18.77
2018-08-03T05:52:19.970Z,16.33
2018-08-03T05:54:48.469Z,16.77
2018-08-03T05:57:17.221Z,18.00
2018-08-03T05:59:45.703Z,17.03
2018-08-03T06:02:14.227Z,15.90
2018-08-03T06:04:42.676Z,15.77
2018-08-03T06:07:11.161Z,17.70
2018-08-03T06:09:39.687Z,21.63
2018-08-03T06:12:08.221Z,15.50
2018-08-03T06:14:36.721Z,20.93
2018-08-03T06:17:05.356Z,17.90
2018-08-03T06:19:34.021Z,14.77
2018-08-03T06:22:02.577Z,14.20
2018-08-03T06:24:31.648Z,20.30
2018-08-03T06:27:00.276Z,17.80
2018-08-03T06:29:28.872Z,13.27
2018-08-03T06:31:57.460Z,13.40
2018-08-03T06:34:26.105Z,17.87
2018-08-03T06:36:54.579Z,16.63
2018-08-03T06:39:23.096Z,14.27
2018-08-03T06:41:51.652Z,17.83
2018-08-03T06:44:20.365Z,14.87
2018-08-03T06:46:48.910Z,14.43
2018-08-03T06:49:17.494Z,21.20
2018-08-03T06:51:45.986Z,16.37
2018-08-03T06:54:14.476Z,15.47
2018-08-03T06:56:43.039Z,16.03
2018-08-03T06:59:11.479Z,16.73
2018-08-03T07:01:40.117Z,14.83
2018-08-03T07:04:08.709Z,11.90
2018-08-03T07:06:37.204Z,14.20
2018-08-03T07:09:08.124Z,17.80
2018-08-03T07:11:37.159Z,15.47
2018-08-03T07:15:09.085Z,18.17
2018-08-03T07:17:37.597Z,14.57
2018-08-03T07:20:06.354Z,15.77
2018-08-03T07:22:34.883Z,15.90
2018-08-03T07:25:03.548Z,14.07
2018-08-03T07:27:32.028Z,14.80
2018-08-03T07:30:00.528Z,10.90
2018-08-03T07:32:29.089Z,11.40
2018-08-03T07:34:57.745Z,14.47
2018-08-03T07:37:26.275Z,14.87
2018-08-03T07:39:55.039Z,12.53
2018-08-03T07:42:23.508Z,17.17
2018-08-03T07:44:51.984Z,10.60
2018-08-03T07:47:20.480Z,17.97
2018-08-03T07:49:50.230Z,15.50
2018-08-03T07:52:18.746Z,16.37
2018-08-03T07:54:47.258Z,10.97
2018-08-03T07:57:15.767Z,11.20
2018-08-03T07:59:44.257Z,16.97
2018-08-03T08:02:12.796Z,9.87
2018-08-03T08:04:41.324Z,17.20
2018-08-03T08:07:09.794Z,10.63
2018-08-03T08:09:38.388Z,14.50
2018-08-03T08:12:07.029Z,14.87
2018-08-03T08:14:35.477Z,13.60
2018-08-03T08:17:04.035Z,13.40
2018-08-03T08:19:32.604Z,12.73
2018-08-03T08:22:01.161Z,12.53
2018-08-03T08:24:29.672Z,17.47
2018-08-03T08:26:58.248Z,14.30
2018-08-03T08:29:26.704Z,15.60
2018-08-03T08:31:55.390Z,10.03
2018-08-03T08:34:23.980Z,12.90
2018-08-03T08:36:52.479Z,8.57
2018-08-03T08:39:20.967Z,12.50
2018-08-03T08:41:49.519Z,16.70
2018-08-03T08:44:18.005Z,11.60
2018-08-03T08:46:46.500Z,10.13
2018-08-03T08:49:15.119Z,11.03
2018-08-03T08:51:43.753Z,9.77
2018-08-03T08:54:12.240Z,10.57
2018-08-03T08:56:40.810Z,9.70
2018-08-03T08:59:09.301Z,9.97
2018-08-03T09:01:37.758Z,9.50
2018-08-03T09:04:06.267Z,11.07
2018-08-03T09:06:34.718Z,14.63
2018-08-03T09:09:03.342Z,10.37
2018-08-03T09:11:31.825Z,8.07
2018-08-03T09:14:00.313Z,9.03
2018-08-03T09:16:28.880Z,8.53
2018-08-03T09:18:57.457Z,10.73
2018-08-03T09:21:25.937Z,10.30
2018-08-03T09:23:54.515Z,8.07
2018-08-03T09:26:22.982Z,11.07
2018-08-03T09:28:51.599Z,10.87
2018-08-03T09:31:20.063Z,7.67
2018-08-03T09:33:48.577Z,10.63
2018-08-03T09:36:17.232Z,10.47
2018-08-03T09:38:45.716Z,6.37
2018-08-03T09:41:14.400Z,7.70
2018-08-03T09:43:42.847Z,9.33
2018-08-03T09:46:11.689Z,11.57
2018-08-03T09:48:40.151Z,10.43
2018-08-03T09:51:08.625Z,9.40
2018-08-03T09:53:37.120Z,11.57
2018-08-03T09:56:05.744Z,9.33
2018-08-03T09:58:34.288Z,8.20
2018-08-03T10:01:08.050Z,11.20
2018-08-03T10:03:36.492Z,9.63
2018-08-03T10:06:05.008Z,7.50
2018-08-03T10:08:33.631Z,8.50
2018-08-03T10:11:02.283Z,9.43
2018-08-03T10:13:30.807Z,6.50
2018-08-03T10:15:59.553Z,10.03
2018-08-03T10:18:28.096Z,8.47
2018-08-03T10:20:56.756Z,9.80
2018-08-03T10:23:25.357Z,8.20
2018-08-03T10:25:53.935Z,7.47
2018-08-03T10:28:22.415Z,7.77
2018-08-03T10:30:51.051Z,4.13
2018-08-03T10:33:19.565Z,7.00
2018-08-03T10:35:48.169Z,5.57
2018-08-03T10:38:16.774Z,5.73
2018-08-03T10:40:45.572Z,6.20
2018-08-03T10:43:14.395Z,4.90
2018-08-03T10:45:43.550Z,5.30
2018-08-03T10:48:12.463Z,9.53
2018-08-03T10:50:50.409Z,5.60
2018-08-03T10:53:19.047Z,9.80
2018-08-03T10:55:47.590Z,4.70
2018-08-03T10:58:16.177Z,5.07
2018-08-03T11:00:44.682Z,9.77
2018-08-03T11:03:13.249Z,10.60
2018-08-03T11:05:41.909Z,9.13
2018-08-03T11:08:35.007Z,4.00
2018-08-03T11:11:03.480Z,7.07
2018-08-03T11:13:33.360Z,9.23
2018-08-03T11:16:01.851Z,7.07
2018-08-03T11:18:30.322Z,6.87
2018-08-03T11:20:58.842Z,7.87
2018-08-03T11:23:27.388Z,6.43
2018-08-03T11:25:55.971Z,5.40
2018-08-03T11:28:24.502Z,9.23
2018-08-03T11:30:52.923Z,6.00
2018-08-03T11:33:22.605Z,6.40
2018-08-03T11:35:51.068Z,11.77
2018-08-03T11:38:19.596Z,4.73
2018-08-03T11:40:48.165Z,10.43
2018-08-03T11:43:16.697Z,9.77
2018-08-03T11:45:45.254Z,7.07
2018-08-03T11:48:13.722Z,6.37
2018-08-03T11:50:42.221Z,8.37
2018-08-03T11:53:10.929Z,4.83
2018-08-03T11:55:39.496Z,5.67
2018-08-03T11:58:08.104Z,7.17
2018-08-03T12:00:36.703Z,9.00
2018-08-03T12:03:13.125Z,7.47
2018-08-03T12:05:41.628Z,6.17
2018-08-03T12:08:10.329Z,4.93
2018-08-03T12:10:39.800Z,4.97
2018-08-03T12:13:08.324Z,5.70
2018-08-03T12:15:36.872Z,5.17
2018-08-03T12:18:05.635Z,4.90
2018-08-03T12:20:34.107Z,6.33
2018-08-03T12:23:02.715Z,4.47
2018-08-03T12:25:31.236Z,7.47
2018-08-03T12:27:59.776Z,5.92
2018-08-03T12:30:28.258Z,6.90
2018-08-03T12:32:56.708Z,10.60
2018-08-03T12:35:25.419Z,8.40
2018-08-03T12:37:54.103Z,6.78
2018-08-03T12:43:22.148Z,8.05
2018-08-03T12:45:50.613Z,6.25
2018-08-03T12:48:19.146Z,6.28
2018-08-03T12:50:47.748Z,9.78
2018-08-03T12:53:16.233Z,4.60
2018-08-03T12:55:44.813Z,6.58
2018-08-03T12:58:13.932Z,5.78
2018-08-03T13:00:42.418Z,8.33
2018-08-03T13:03:10.854Z,6.45
2018-08-03T13:05:39.353Z,13.95
2018-08-03T13:08:08.269Z,8.58
2018-08-03T13:10:36.592Z,5.60
2018-08-03T13:13:05.268Z,4.45
2018-08-03T13:15:33.820Z,6.40
2018-08-03T13:18:02.396Z,3.85
2018-08-03T13:20:30.874Z,3.65
2018-08-03T13:23:01.568Z,3.85
2018-08-03T13:25:30.058Z,4.87
2018-08-03T13:27:58.627Z,7.58
2018-08-03T13:30:27.254Z,10.93
2018-08-03T13:32:55.811Z,12.25
2018-08-03T13:35:24.399Z,14.18
2018-08-03T13:37:52.976Z,6.75
2018-08-03T13:40:21.499Z,5.67
2018-08-03T13:42:50.020Z,4.17
2018-08-03T13:45:18.470Z,14.70
2018-08-03T13:47:46.939Z,8.23
2018-08-03T13:50:15.387Z,5.08
2018-08-03T13:52:44.065Z,7.62
2018-08-03T13:55:12.737Z,10.58
2018-08-03T13:57:41.291Z,5.97
2018-08-03T14:00:11.334Z,6.30
2018-08-03T14:02:39.950Z,6.25
2018-08-03T14:05:10.174Z,5.55
2018-08-03T14:07:38.819Z,8.85
2018-08-03T14:10:08.569Z,7.85
2018-08-03T14:12:51.516Z,4.60
2018-08-03T14:15:35.013Z,6.97
2018-08-03T14:18:36.098Z,3.60
2018-08-03T14:21:04.586Z,3.62
2018-08-03T14:23:33.138Z,3.12
2018-08-03T14:26:01.692Z,4.10
2018-08-03T14:28:30.157Z,5.00
2018-08-03T14:31:02.637Z,7.30
2018-08-03T14:33:31.276Z,4.75
2018-08-03T14:35:59.823Z,5.72
2018-08-03T14:38:33.274Z,7.33
2018-08-03T14:41:01.781Z,4.70
2018-08-03T14:43:30.311Z,4.80
2018-08-03T14:45:59.029Z,3.83
2018-08-03T14:48:27.476Z,6.70
2018-08-03T14:50:56.025Z,7.42
2018-08-03T14:53:24.481Z,6.00
2018-08-03T14:55:52.983Z,6.53
2018-08-03T14:58:21.547Z,9.17
2018-08-03T15:00:50.053Z,6.40
2018-08-03T15:03:18.697Z,7.80
2018-08-03T15:05:47.248Z,8.43
2018-08-03T15:08:15.758Z,5.53
2018-08-03T15:10:44.189Z,5.67
2018-08-03T15:13:12.753Z,36.73
2018-08-03T15:15:41.304Z,5.23
2018-08-03T15:18:51.031Z,15.70
2018-08-03T15:21:19.545Z,3.60
2018-08-03T15:23:48.229Z,7.27
2018-08-03T15:26:16.697Z,6.07
2018-08-03T15:28:45.187Z,3.97
2018-08-03T15:31:13.628Z,12.23
2018-08-03T15:33:42.140Z,4.57
2018-08-03T15:36:10.581Z,3.30
2018-08-03T15:38:39.085Z,8.33
2018-08-03T15:41:07.838Z,5.67
2018-08-03T15:43:36.369Z,9.67
2018-08-03T15:46:04.984Z,4.80
2018-08-03T15:48:33.525Z,9.10
2018-08-03T15:51:02.040Z,4.67
2018-08-03T15:53:30.526Z,4.13
2018-08-03T15:55:59.174Z,7.87
2018-08-03T15:58:27.650Z,5.63
2018-08-03T16:00:56.183Z,8.63
2018-08-03T16:03:24.681Z,4.63
2018-08-03T16:05:53.261Z,7.17
2018-08-03T16:08:21.790Z,5.80
2018-08-03T16:10:50.270Z,4.47
2018-08-03T16:13:18.747Z,5.80
2018-08-03T16:15:47.243Z,5.33
2018-08-03T16:18:15.813Z,7.63
2018-08-03T16:20:44.299Z,6.20
2018-08-03T16:23:12.786Z,3.57
2018-08-03T16:25:43.618Z,7.20
2018-08-03T16:28:12.108Z,5.07
2018-08-03T16:30:40.551Z,13.20
2018-08-03T16:33:09.046Z,7.83
2018-08-03T16:35:37.512Z,10.27
2018-08-03T16:38:06.014Z,7.83
2018-08-03T16:40:34.596Z,6.97
2018-08-03T16:43:03.175Z,6.07
2018-08-03T16:45:31.681Z,8.83
2018-08-03T16:48:00.256Z,6.63
2018-08-03T16:50:28.836Z,6.40
2018-08-03T16:52:57.268Z,5.77
2018-08-03T16:55:25.784Z,7.23
2018-08-03T16:57:54.276Z,5.03
2018-08-03T17:00:22.879Z,3.33
2018-08-03T17:02:51.419Z,5.60
2018-08-03T17:05:20.003Z,4.57
2018-08-03T17:08:00.876Z,3.20
2018-08-03T17:10:29.442Z,3.60
2018-08-03T17:12:57.944Z,5.60
2018-08-03T17:15:26.376Z,3.03
2018-08-03T17:17:54.925Z,4.30
2018-08-03T17:20:23.363Z,12.63
2018-08-03T17:22:51.881Z,4.57
2018-08-03T17:25:20.446Z,5.73
2018-08-03T17:27:49.636Z,5.13
2018-08-03T17:30:18.062Z,4.80
2018-08-03T17:32:46.615Z,3.33
2018-08-03T17:35:15.196Z,4.53
2018-08-03T17:37:43.626Z,6.53
2018-08-03T17:40:12.161Z,5.20
2018-08-03T17:42:40.799Z,8.73
2018-08-03T17:45:09.227Z,4.93
2018-08-03T17:47:37.828Z,9.63
2018-08-03T17:50:06.583Z,9.77
2018-08-03T17:52:35.100Z,5.07
2018-08-03T17:55:03.680Z,10.43
2018-08-03T17:57:32.136Z,5.37
2018-08-03T18:00:00.678Z,5.50
2018-08-03T18:02:29.213Z,7.27
2018-08-03T18:04:57.685Z,8.10
2018-08-03T18:07:26.285Z,4.73
2018-08-03T18:09:54.745Z,7.63
2018-08-03T18:13:00.116Z,5.37
2018-08-03T18:15:40.569Z,3.70
2018-08-03T18:18:09.161Z,6.07
2018-08-03T18:20:37.732Z,7.83
2018-08-03T18:23:06.410Z,5.07
2018-08-03T18:25:34.929Z,11.70
2018-08-03T18:28:03.551Z,8.40
2018-08-03T18:30:32.101Z,8.73
2018-08-03T18:33:00.577Z,5.87
2018-08-03T18:35:29.119Z,9.00
2018-08-03T18:37:57.619Z,8.60
2018-08-03T18:40:26.193Z,6.37
2018-08-03T18:42:54.772Z,9.40
2018-08-03T18:45:23.196Z,7.20
2018-08-03T18:47:51.732Z,6.03
2018-08-03T18:50:20.217Z,6.17
2018-08-03T18:52:48.661Z,5.17
2018-08-03T18:55:17.310Z,8.60
2018-08-03T18:57:45.876Z,6.87
2018-08-03T19:00:14.368Z,4.10
2018-08-03T19:02:42.863Z,6.63
2018-08-03T19:05:11.438Z,8.30
2018-08-03T19:07:40.000Z,4.97
2018-08-03T19:10:08.515Z,9.27
2018-08-03T19:12:37.046Z,9.80
2018-08-03T19:15:06.401Z,10.43
2018-08-03T19:17:34.959Z,4.73
2018-08-03T19:20:03.580Z,9.93
2018-08-03T19:22:32.117Z,3.50
2018-08-03T19:25:00.612Z,4.27
2018-08-03T19:27:29.068Z,3.83
2018-08-03T19:29:57.694Z,7.17
2018-08-03T19:32:26.294Z,9.40
2018-08-03T19:35:09.525Z,4.53
2018-08-03T19:37:38.072Z,5.67
2018-08-03T19:40:07.297Z,7.57
2018-08-03T19:42:35.915Z,9.93
2018-08-03T19:45:04.962Z,6.57
2018-08-03T19:47:33.461Z,5.27
2018-08-03T19:50:02.005Z,5.77
2018-08-03T19:52:30.685Z,9.53
2018-08-03T19:54:59.275Z,3.30
2018-08-03T19:57:27.881Z,4.63
2018-08-03T19:59:56.446Z,4.87
2018-08-03T20:02:25.041Z,6.10
2018-08-03T20:04:54.681Z,6.37
2018-08-03T20:07:23.253Z,4.50
2018-08-03T20:09:51.978Z,5.57
2018-08-03T20:12:20.661Z,9.67
2018-08-03T20:14:49.198Z,3.37
2018-08-03T20:17:17.781Z,6.30
2018-08-03T20:19:46.360Z,6.63
2018-08-03T20:22:17.946Z,6.37
2018-08-03T20:24:46.834Z,6.00
2018-08-03T20:27:16.097Z,8.43
2018-08-03T20:29:45.101Z,5.57
2018-08-03T20:32:13.733Z,4.70
2018-08-03T20:34:42.261Z,3.73
2018-08-03T20:37:11.181Z,4.87
2018-08-03T20:39:39.765Z,3.97
2018-08-03T20:42:08.740Z,6.93
2018-08-03T20:44:37.331Z,6.07
2018-08-03T20:47:05.906Z,6.00
2018-08-03T20:49:34.489Z,7.63
2018-08-03T20:52:03.119Z,5.80
2018-08-03T20:54:31.778Z,4.00
2018-08-03T20:57:18.756Z,5.23
2018-08-03T20:59:49.526Z,3.30
2018-08-03T21:02:29.391Z,6.47
2018-08-03T21:04:58.660Z,5.10
2018-08-03T21:07:27.987Z,5.90
2018-08-03T21:09:57.025Z,7.53
2018-08-03T21:12:25.530Z,6.53
2018-08-03T21:14:54.000Z,4.87
2018-08-03T21:17:22.505Z,5.50
2018-08-03T21:19:51.047Z,4.30
2018-08-03T21:22:19.523Z,3.83
2018-08-03T21:24:48.031Z,10.80
2018-08-03T21:27:16.620Z,3.63
2018-08-03T21:29:45.208Z,5.57
2018-08-03T21:32:13.785Z,4.03
2018-08-03T21:34:42.379Z,8.53
2018-08-03T21:37:11.015Z,15.20
2018-08-03T21:39:39.617Z,8.90
2018-08-03T21:42:08.103Z,10.53
2018-08-03T21:44:36.916Z,13.23
2018-08-03T21:47:05.494Z,6.70
2018-08-03T21:49:33.998Z,4.07
2018-08-03T21:52:02.600Z,9.17
2018-08-03T21:54:31.155Z,6.47
2018-08-03T21:56:59.757Z,6.27
2018-08-03T21:59:28.335Z,6.80
2018-08-03T22:01:57.210Z,11.30
2018-08-03T22:04:25.766Z,6.00
2018-08-03T22:06:54.361Z,5.20
2018-08-03T22:09:22.844Z,7.17
2018-08-03T22:12:15.734Z,3.43
2018-08-03T22:14:49.328Z,4.03
2018-08-03T22:17:17.887Z,5.33
2018-08-03T22:19:46.512Z,7.23
2018-08-03T22:22:26.014Z,10.33
2018-08-03T22:24:54.719Z,3.50
2018-08-03T22:27:23.278Z,6.27
2018-08-03T22:29:51.932Z,6.70
2018-08-03T22:32:20.623Z,3.67
2018-08-03T22:34:49.132Z,6.20
2018-08-03T22:37:17.860Z,5.43
2018-08-03T22:39:46.621Z,4.67
2018-08-03T22:42:15.272Z,5.37
2018-08-03T22:44:43.774Z,4.80
2018-08-03T22:47:22.698Z,5.33
2018-08-03T22:49:52.086Z,3.77
2018-08-03T22:52:20.676Z,4.10
2018-08-03T22:54:49.197Z,5.17
2018-08-03T22:57:17.774Z,4.87
2018-08-03T22:59:46.372Z,5.97
2018-08-03T23:02:14.868Z,4.60
2018-08-03T23:04:43.395Z,5.13
2018-08-03T23:07:11.902Z,5.03
2018-08-03T23:09:40.364Z,3.17
2018-08-03T23:12:08.860Z,3.63
2018-08-03T23:14:37.452Z,2.30
2018-08-03T23:17:06.057Z,3.83
2018-08-03T23:19:34.603Z,5.83
2018-08-03T23:22:03.083Z,4.73
2018-08-03T23:24:31.550Z,3.00
2018-08-03T23:27:00.162Z,7.77
2018-08-03T23:29:28.639Z,2.97
2018-08-03T23:31:57.127Z,6.30
2018-08-03T23:34:25.551Z,5.13
2018-08-03T23:36:54.061Z,6.33
2018-08-03T23:39:22.732Z,2.63
2018-08-03T23:41:51.264Z,3.97
2018-08-03T23:44:19.730Z,4.63
2018-08-03T23:46:48.450Z,6.67
2018-08-03T23:49:16.995Z,6.17
2018-08-03T23:51:45.578Z,3.00
2018-08-03T23:54:14.151Z,6.93
2018-08-03T23:56:42.617Z,2.20
2018-08-03T23:59:11.115Z,5.43
